createdAt,value
2022-10-13T00:00:09.986Z,12.40
2022-10-13T00:02:15.950Z,12.80
2022-10-13T00:04:19.775Z,13.40
2022-10-13T00:06:26.667Z,13.20
2022-10-13T00:08:30.886Z,12.93
2022-10-13T00:10:37.820Z,13.50
2022-10-13T00:12:43.065Z,12.93
2022-10-13T00:14:48.881Z,12.83
2022-10-13T00:16:52.420Z,13.90
2022-10-13T00:18:56.102Z,12.00
2022-10-13T00:20:59.595Z,13.20
2022-10-13T00:23:05.459Z,11.90
2022-10-13T00:25:10.299Z,12.50
2022-10-13T00:27:14.559Z,13.80
2022-10-13T00:29:17.782Z,14.57
2022-10-13T00:31:22.687Z,14.30
2022-10-13T00:33:26.615Z,15.20
2022-10-13T00:35:30.000Z,13.97
2022-10-13T00:37:33.255Z,14.10
2022-10-13T00:39:38.343Z,13.60
2022-10-13T00:41:41.656Z,13.57
2022-10-13T00:44:03.077Z,14.20
2022-10-13T00:46:07.138Z,14.57
2022-10-13T00:48:10.511Z,14.30
2022-10-13T00:50:16.619Z,12.83
2022-10-13T00:52:22.703Z,12.50
2022-10-13T00:54:26.277Z,13.10
2022-10-13T00:56:33.347Z,13.50
2022-10-13T00:58:37.527Z,12.90
2022-10-13T01:00:42.146Z,13.00
2022-10-13T01:02:46.052Z,12.93
2022-10-13T01:04:53.060Z,14.53
2022-10-13T01:06:56.807Z,12.87
2022-10-13T01:08:59.951Z,13.33
2022-10-13T01:11:14.311Z,12.30
2022-10-13T01:13:24.583Z,11.30
2022-10-13T01:15:31.711Z,12.27
2022-10-13T01:17:38.482Z,11.20
2022-10-13T01:20:05.702Z,11.47
2022-10-13T01:22:19.737Z,11.60
2022-10-13T01:24:44.897Z,12.37
2022-10-13T01:27:16.047Z,13.17
2022-10-13T01:29:59.120Z,12.77
2022-10-13T01:32:08.852Z,13.43
2022-10-13T01:34:18.124Z,12.97
2022-10-13T01:36:27.494Z,13.13
2022-10-13T01:38:36.985Z,13.10
2022-10-13T01:40:45.527Z,13.83
2022-10-13T01:42:54.791Z,14.00
2022-10-13T01:45:02.463Z,12.10
2022-10-13T01:47:09.130Z,12.70
2022-10-13T01:49:15.381Z,12.80
2022-10-13T01:51:20.581Z,11.90
2022-10-13T01:53:27.884Z,12.43
2022-10-13T01:55:31.760Z,12.83
2022-10-13T01:57:37.455Z,12.65
2022-10-13T01:59:40.788Z,12.30
2022-10-13T02:01:53.013Z,11.70
2022-10-13T02:04:10.757Z,12.40
2022-10-13T02:06:19.611Z,13.70
2022-10-13T02:08:29.574Z,12.30
2022-10-13T02:10:36.348Z,11.83
2022-10-13T02:12:47.050Z,11.95
2022-10-13T02:14:52.487Z,11.97
2022-10-13T02:16:58.093Z,12.67
2022-10-13T02:19:04.225Z,12.30
2022-10-13T02:21:07.502Z,13.37
2022-10-13T02:23:13.273Z,12.73
2022-10-13T02:25:16.738Z,13.20
2022-10-13T02:27:21.467Z,12.13
2022-10-13T02:29:24.789Z,12.90
2022-10-13T02:31:28.160Z,12.90
2022-10-13T02:33:31.901Z,12.10
2022-10-13T02:35:37.173Z,12.70
2022-10-13T02:37:40.438Z,13.07
2022-10-13T02:39:46.285Z,12.50
2022-10-13T02:41:50.653Z,11.83
2022-10-13T02:43:53.816Z,12.83
2022-10-13T02:45:57.783Z,12.17
2022-10-13T02:48:03.293Z,12.80
2022-10-13T02:50:09.278Z,12.60
2022-10-13T02:52:15.023Z,12.10
2022-10-13T02:54:18.703Z,12.57
2022-10-13T02:56:22.377Z,12.23
2022-10-13T02:58:25.547Z,12.10
2022-10-13T03:00:29.148Z,13.13
2022-10-13T03:02:32.622Z,13.50
2022-10-13T03:04:37.382Z,13.10
2022-10-13T03:06:40.861Z,12.87
2022-10-13T03:08:46.395Z,13.13
2022-10-13T03:10:50.174Z,12.53
2022-10-13T03:12:53.410Z,12.90
2022-10-13T03:14:56.560Z,12.73
2022-10-13T03:17:00.083Z,12.67
2022-10-13T03:19:03.882Z,12.60
2022-10-13T03:21:08.268Z,13.10
2022-10-13T03:23:14.460Z,12.73
2022-10-13T03:25:19.217Z,12.80
2022-10-13T03:27:22.549Z,12.47
2022-10-13T03:29:26.015Z,11.80
2022-10-13T03:31:29.823Z,12.37
2022-10-13T03:33:41.029Z,12.47
2022-10-13T03:35:44.212Z,12.97
2022-10-13T03:37:47.674Z,13.23
2022-10-13T03:39:51.729Z,12.30
2022-10-13T03:41:57.311Z,12.60
2022-10-13T03:44:01.817Z,12.30
2022-10-13T03:46:07.368Z,13.10
2022-10-13T03:48:10.617Z,13.20
2022-10-13T03:50:14.813Z,13.97
2022-10-13T03:52:18.665Z,12.83
2022-10-13T03:54:22.744Z,12.80
2022-10-13T03:56:29.407Z,12.70
2022-10-13T03:58:34.156Z,12.70
2022-10-13T04:00:37.594Z,12.70
2022-10-13T04:02:41.404Z,12.70
2022-10-13T04:04:45.173Z,12.67
2022-10-13T04:06:48.530Z,12.70
2022-10-13T04:08:52.214Z,12.77
2022-10-13T04:11:00.583Z,13.17
2022-10-13T04:13:04.070Z,12.47
2022-10-13T04:15:11.191Z,12.07
2022-10-13T04:17:14.904Z,12.33
2022-10-13T04:19:18.217Z,12.40
2022-10-13T04:21:21.996Z,11.23
2022-10-13T04:23:25.631Z,12.77
2022-10-13T04:25:29.021Z,12.53
2022-10-13T04:27:32.843Z,13.00
2022-10-13T04:29:36.387Z,12.40
2022-10-13T04:31:42.838Z,13.40
2022-10-13T04:33:46.557Z,12.83
2022-10-13T04:35:50.238Z,13.97
2022-10-13T04:37:53.530Z,12.83
2022-10-13T04:39:56.842Z,13.73
2022-10-13T04:42:02.781Z,12.87
2022-10-13T04:44:07.949Z,13.00
2022-10-13T04:46:18.502Z,13.10
2022-10-13T04:48:23.390Z,13.13
2022-10-13T04:50:26.665Z,16.67
2022-10-13T04:52:35.561Z,14.00
2022-10-13T04:54:39.303Z,13.90
2022-10-13T04:56:42.634Z,13.00
2022-10-13T04:58:47.013Z,14.30
2022-10-13T05:00:51.444Z,13.70
2022-10-13T05:02:54.828Z,13.40
2022-10-13T05:05:00.004Z,12.97
2022-10-13T05:07:17.660Z,12.83
2022-10-13T05:09:22.442Z,13.60
2022-10-13T05:11:26.627Z,12.97
2022-10-13T05:13:31.464Z,13.63
2022-10-13T05:15:34.620Z,12.33
2022-10-13T05:17:37.652Z,13.90
2022-10-13T05:19:44.315Z,13.17
2022-10-13T05:21:50.202Z,14.67
2022-10-13T05:23:55.821Z,13.23
2022-10-13T05:26:02.481Z,12.97
2022-10-13T05:28:06.542Z,13.27
2022-10-13T05:30:10.769Z,13.47
2022-10-13T05:32:13.814Z,13.23
2022-10-13T05:34:16.939Z,13.67
2022-10-13T05:36:22.829Z,13.10
2022-10-13T05:38:27.503Z,13.70
2022-10-13T05:40:32.027Z,12.20
2022-10-13T05:42:37.324Z,13.03
2022-10-13T05:44:40.358Z,13.53
2022-10-13T05:46:43.447Z,12.90
2022-10-13T05:48:46.817Z,13.50
2022-10-13T05:50:49.945Z,13.00
2022-10-13T05:52:53.263Z,13.93
2022-10-13T05:54:59.873Z,12.53
2022-10-13T05:57:04.938Z,13.77
2022-10-13T05:59:09.520Z,13.47
2022-10-13T06:01:19.101Z,14.17
2022-10-13T06:03:23.868Z,13.40
2022-10-13T06:05:28.675Z,14.50
2022-10-13T06:07:32.925Z,13.97
2022-10-13T06:09:39.187Z,14.87
2022-10-13T06:11:44.316Z,14.47
2022-10-13T06:13:47.385Z,14.73
2022-10-13T06:15:51.800Z,13.80
2022-10-13T06:17:55.125Z,13.83
2022-10-13T06:20:00.222Z,14.43
2022-10-13T06:22:03.932Z,14.83
2022-10-13T06:24:07.444Z,15.20
2022-10-13T06:26:10.494Z,13.77
2022-10-13T06:28:15.524Z,14.20
2022-10-13T06:30:18.939Z,14.20
2022-10-13T06:32:22.545Z,14.30
2022-10-13T06:34:28.653Z,14.03
2022-10-13T06:36:31.681Z,14.10
2022-10-13T06:38:35.687Z,14.83
2022-10-13T06:40:38.816Z,15.33
2022-10-13T06:42:41.975Z,16.40
2022-10-13T06:44:46.973Z,14.30
2022-10-13T06:46:50.030Z,15.40
2022-10-13T06:48:53.747Z,16.00
2022-10-13T06:51:02.083Z,15.27
2022-10-13T06:53:05.229Z,16.37
2022-10-13T06:55:09.040Z,15.97
2022-10-13T06:57:12.895Z,16.17
2022-10-13T06:59:16.012Z,15.63
2022-10-13T07:01:23.348Z,16.40
2022-10-13T07:03:26.507Z,16.10
2022-10-13T07:05:30.051Z,15.90
2022-10-13T07:07:33.190Z,16.00
2022-10-13T07:09:36.591Z,15.30
2022-10-13T07:11:39.856Z,16.27
2022-10-13T07:13:46.323Z,16.70
2022-10-13T07:15:51.550Z,16.23
2022-10-13T07:17:56.027Z,16.30
2022-10-13T07:20:02.320Z,18.20
2022-10-13T07:22:08.130Z,15.70
2022-10-13T07:24:12.764Z,16.33
2022-10-13T07:26:17.111Z,16.00
2022-10-13T07:28:20.429Z,15.30
2022-10-13T07:30:23.665Z,16.47
2022-10-13T07:32:26.792Z,14.97
2022-10-13T07:34:33.016Z,16.83
2022-10-13T07:36:37.442Z,15.43
2022-10-13T07:38:40.601Z,15.93
2022-10-13T07:40:43.917Z,15.57
2022-10-13T07:42:46.886Z,15.77
2022-10-13T07:44:50.272Z,16.70
2022-10-13T07:46:53.356Z,16.40
2022-10-13T07:48:56.431Z,16.47
2022-10-13T07:51:02.378Z,16.80
2022-10-13T07:53:05.573Z,15.83
2022-10-13T07:55:09.732Z,17.70
2022-10-13T07:57:12.786Z,16.33
2022-10-13T07:59:15.825Z,16.63
2022-10-13T08:01:18.947Z,15.80
2022-10-13T08:03:22.054Z,14.30
2022-10-13T08:05:25.104Z,14.30
2022-10-13T08:07:29.740Z,14.30
2022-10-13T08:09:33.119Z,15.60
2022-10-13T08:11:36.953Z,15.23
2022-10-13T08:13:40.122Z,16.03
2022-10-13T08:15:49.380Z,15.57
2022-10-13T08:17:52.457Z,15.10
2022-10-13T08:19:56.369Z,13.70
2022-10-13T08:22:02.369Z,14.40
2022-10-13T08:24:08.551Z,14.20
2022-10-13T08:26:16.769Z,15.43
2022-10-13T08:28:21.995Z,14.60
2022-10-13T08:30:25.300Z,14.50
2022-10-13T08:32:28.679Z,14.00
2022-10-13T08:34:31.997Z,13.73
2022-10-13T08:36:35.251Z,13.30
2022-10-13T08:38:38.383Z,12.80
2022-10-13T08:40:47.607Z,13.50
2022-10-13T08:42:52.852Z,13.10
2022-10-13T08:45:22.233Z,12.50
2022-10-13T08:47:35.468Z,13.83
2022-10-13T08:49:42.302Z,13.90
2022-10-13T08:51:45.365Z,12.33
2022-10-13T08:53:48.630Z,13.27
2022-10-13T08:55:57.331Z,13.90
2022-10-13T08:58:00.969Z,13.03
2022-10-13T09:00:05.339Z,12.73
2022-10-13T09:02:13.669Z,13.03
2022-10-13T09:04:29.404Z,12.87
2022-10-13T09:06:35.238Z,14.10
2022-10-13T09:08:43.954Z,12.80
2022-10-13T09:10:49.069Z,11.97
2022-10-13T09:12:58.758Z,12.23
2022-10-13T09:15:05.707Z,12.47
2022-10-13T09:17:16.782Z,11.97
2022-10-13T09:19:25.977Z,12.07
2022-10-13T09:21:30.192Z,11.00
2022-10-13T09:23:35.124Z,11.73
2022-10-13T09:25:42.586Z,11.80
2022-10-13T09:27:48.282Z,12.47
2022-10-13T09:29:52.822Z,12.70
2022-10-13T09:32:09.289Z,13.20
2022-10-13T09:34:17.025Z,10.97
2022-10-13T09:36:20.510Z,11.83
2022-10-13T09:38:26.170Z,11.73
2022-10-13T09:40:31.014Z,10.77
2022-10-13T09:42:34.259Z,11.40
2022-10-13T09:44:38.072Z,11.30
2022-10-13T09:46:49.086Z,11.20
2022-10-13T09:48:54.408Z,11.30
2022-10-13T09:50:58.386Z,11.40
2022-10-13T09:53:13.268Z,11.27
2022-10-13T09:55:32.787Z,11.20
2022-10-13T09:57:41.032Z,11.43
2022-10-13T09:59:47.471Z,11.17
2022-10-13T10:01:54.290Z,10.90
2022-10-13T10:03:58.797Z,10.57
2022-10-13T10:06:03.403Z,9.80
2022-10-13T10:08:12.994Z,10.73
2022-10-13T10:10:26.212Z,10.10
2022-10-13T10:12:31.486Z,9.40
2022-10-13T10:14:35.895Z,9.43
2022-10-13T10:16:43.956Z,9.37
2022-10-13T10:18:55.035Z,9.00
2022-10-13T10:21:08.470Z,9.37
2022-10-13T10:23:15.917Z,9.40
2022-10-13T10:25:29.905Z,8.73
2022-10-13T10:27:40.012Z,9.10
2022-10-13T10:29:50.663Z,9.65
2022-10-13T10:32:03.089Z,10.17
2022-10-13T10:34:28.895Z,9.03
2022-10-13T10:36:37.727Z,8.70
2022-10-13T10:38:46.129Z,8.50
2022-10-13T10:40:51.972Z,8.93
2022-10-13T10:43:08.923Z,9.43
2022-10-13T10:45:17.452Z,9.57
2022-10-13T10:47:24.900Z,8.23
2022-10-13T10:49:32.952Z,7.77
2022-10-13T10:51:37.819Z,8.20
2022-10-13T10:53:46.911Z,8.93
2022-10-13T10:55:54.330Z,8.70
2022-10-13T10:58:06.242Z,8.20
2022-10-13T11:00:14.831Z,8.60
2022-10-13T11:02:42.945Z,8.23
2022-10-13T11:04:48.359Z,8.63
2022-10-13T11:06:51.675Z,8.37
2022-10-13T11:08:58.255Z,8.97
2022-10-13T11:11:38.453Z,8.73
2022-10-13T11:13:51.603Z,8.80
2022-10-13T11:15:55.459Z,7.73
2022-10-13T11:17:58.782Z,7.77
2022-10-13T11:20:41.468Z,8.47
2022-10-13T11:23:25.124Z,9.00
2022-10-13T11:25:37.100Z,8.50
2022-10-13T11:27:44.908Z,8.37
2022-10-13T11:29:56.368Z,7.77
2022-10-13T11:31:59.553Z,7.67
2022-10-13T11:34:03.585Z,7.80
2022-10-13T11:36:49.208Z,7.47
2022-10-13T11:38:54.733Z,8.20
2022-10-13T11:41:08.369Z,8.33
2022-10-13T11:43:24.482Z,8.30
2022-10-13T11:45:46.729Z,7.90
2022-10-13T11:48:29.369Z,8.00
2022-10-13T11:50:38.055Z,8.20
2022-10-13T11:52:52.475Z,9.37
2022-10-13T11:54:58.005Z,7.90
2022-10-13T11:57:01.325Z,7.80
2022-10-13T11:59:04.760Z,9.23
2022-10-13T12:01:14.573Z,9.13
2022-10-13T12:03:22.712Z,8.80
2022-10-13T12:05:27.299Z,8.00
2022-10-13T12:07:36.534Z,8.57
2022-10-13T12:09:50.010Z,7.77
2022-10-13T12:11:59.725Z,9.00
2022-10-13T12:14:03.272Z,8.53
2022-10-13T12:16:08.244Z,8.87
2022-10-13T12:18:24.321Z,8.20
2022-10-13T12:20:29.451Z,8.93
2022-10-13T12:22:36.755Z,9.20
2022-10-13T12:24:43.964Z,8.07
2022-10-13T12:26:47.049Z,9.07
2022-10-13T12:28:52.220Z,9.37
2022-10-13T12:30:56.806Z,8.20
2022-10-13T12:33:01.085Z,9.30
2022-10-13T12:35:19.386Z,8.67
2022-10-13T12:37:30.992Z,8.60
2022-10-13T12:39:38.190Z,7.97
2022-10-13T12:41:47.468Z,8.00
2022-10-13T12:43:51.752Z,8.70
2022-10-13T12:45:54.855Z,8.93
2022-10-13T12:47:58.008Z,8.77
2022-10-13T12:50:22.499Z,9.40
2022-10-13T12:52:25.984Z,8.47
2022-10-13T12:54:31.760Z,8.00
2022-10-13T12:56:35.129Z,9.90
2022-10-13T12:58:43.953Z,9.97
2022-10-13T13:00:56.312Z,9.20
2022-10-13T13:03:00.818Z,8.87
2022-10-13T13:05:04.078Z,8.80
2022-10-13T13:07:07.994Z,8.23
2022-10-13T13:09:29.552Z,7.83
2022-10-13T13:11:35.765Z,8.20
2022-10-13T13:13:42.203Z,8.47
2022-10-13T13:15:45.301Z,9.20
2022-10-13T13:18:03.804Z,8.50
2022-10-13T13:20:20.904Z,8.53
2022-10-13T13:22:24.256Z,9.30
2022-10-13T13:24:36.046Z,8.83
2022-10-13T13:26:47.330Z,8.70
2022-10-13T13:28:52.879Z,8.70
2022-10-13T13:30:56.373Z,8.37
2022-10-13T13:32:59.649Z,8.43
2022-10-13T13:35:02.826Z,8.07
2022-10-13T13:37:06.081Z,8.37
2022-10-13T13:39:15.372Z,8.00
2022-10-13T13:41:19.176Z,8.47
2022-10-13T13:43:22.654Z,8.43
2022-10-13T13:45:27.315Z,8.27
2022-10-13T13:47:30.539Z,8.80
2022-10-13T13:49:33.711Z,7.80
2022-10-13T13:51:37.026Z,7.80
2022-10-13T13:53:40.311Z,8.07
2022-10-13T13:55:44.784Z,8.00
2022-10-13T13:57:49.448Z,8.20
2022-10-13T13:59:52.495Z,7.70
2022-10-13T14:01:57.082Z,7.60
2022-10-13T14:04:03.093Z,7.03
2022-10-13T14:06:06.577Z,7.93
2022-10-13T14:08:09.716Z,8.27
2022-10-13T14:10:12.927Z,6.93
2022-10-13T14:12:16.310Z,7.03
2022-10-13T14:14:19.474Z,7.27
2022-10-13T14:16:22.704Z,7.50
2022-10-13T14:18:29.449Z,7.03
2022-10-13T14:20:32.621Z,6.90
2022-10-13T14:22:38.523Z,6.70
2022-10-13T14:24:41.711Z,7.73
2022-10-13T14:26:46.430Z,8.30
2022-10-13T14:28:49.572Z,7.83
2022-10-13T14:30:52.746Z,9.07
2022-10-13T14:32:55.843Z,8.17
2022-10-13T14:35:00.921Z,13.80
2022-10-13T14:37:04.064Z,14.20
2022-10-13T14:39:07.155Z,11.90
2022-10-13T14:41:10.465Z,9.90
2022-10-13T14:43:13.528Z,8.47
2022-10-13T14:45:17.883Z,8.00
2022-10-13T14:47:21.263Z,7.93
2022-10-13T14:49:24.957Z,7.37
2022-10-13T14:51:29.536Z,7.07
2022-10-13T14:53:34.332Z,7.67
2022-10-13T14:55:37.669Z,6.73
2022-10-13T14:57:40.821Z,7.23
2022-10-13T14:59:44.139Z,8.97
2022-10-13T15:01:48.706Z,8.03
2022-10-13T15:03:52.134Z,8.60
2022-10-13T15:05:55.521Z,8.13
2022-10-13T15:08:04.230Z,7.80
2022-10-13T15:10:08.744Z,7.17
2022-10-13T15:12:11.874Z,7.90
2022-10-13T15:14:15.021Z,7.47
2022-10-13T15:16:23.791Z,7.40
2022-10-13T15:18:29.347Z,7.10
2022-10-13T15:20:32.651Z,6.87
2022-10-13T15:22:35.736Z,7.27
2022-10-13T15:24:40.290Z,6.83
2022-10-13T15:26:43.374Z,6.93
2022-10-13T15:28:49.091Z,7.80
2022-10-13T15:30:52.338Z,7.90
2022-10-13T15:32:57.516Z,8.17
2022-10-13T15:35:09.053Z,8.03
2022-10-13T15:37:20.660Z,7.63
2022-10-13T15:39:26.991Z,9.43
2022-10-13T15:41:35.270Z,8.70
2022-10-13T15:43:39.097Z,9.57
2022-10-13T15:45:42.703Z,9.33
2022-10-13T15:47:45.874Z,10.30
2022-10-13T15:49:48.943Z,8.67
2022-10-13T15:51:52.583Z,8.30
2022-10-13T15:53:56.240Z,10.30
2022-10-13T15:56:02.458Z,9.83
2022-10-13T15:58:10.080Z,11.03
2022-10-13T16:00:20.468Z,12.77
2022-10-13T16:02:24.277Z,12.30
2022-10-13T16:04:27.386Z,9.77
2022-10-13T16:06:30.645Z,10.83
2022-10-13T16:08:33.935Z,10.63
2022-10-13T16:10:43.355Z,14.30
2022-10-13T16:12:49.663Z,14.20
2022-10-13T16:14:54.384Z,10.27
2022-10-13T16:17:00.580Z,9.73
2022-10-13T16:19:03.748Z,13.40
2022-10-13T16:21:15.762Z,10.83
2022-10-13T16:23:21.389Z,9.80
2022-10-13T16:25:27.520Z,9.60
2022-10-13T16:27:30.570Z,8.87
2022-10-13T16:29:35.450Z,10.30
2022-10-13T16:31:40.016Z,11.03
2022-10-13T16:33:43.754Z,11.10
2022-10-13T16:35:46.922Z,10.07
2022-10-13T16:37:53.109Z,8.33
2022-10-13T16:39:57.992Z,9.67
2022-10-13T16:42:03.005Z,9.67
2022-10-13T16:44:06.644Z,8.90
2022-10-13T16:46:13.350Z,8.70
2022-10-13T16:48:17.890Z,8.33
2022-10-13T16:50:21.123Z,8.60
2022-10-13T16:52:24.375Z,11.37
2022-10-13T16:54:32.865Z,10.40
2022-10-13T16:56:42.324Z,10.33
2022-10-13T16:58:45.986Z,10.67
2022-10-13T17:00:49.120Z,13.20
2022-10-13T17:02:52.265Z,9.47
2022-10-13T17:04:56.890Z,9.63
2022-10-13T17:07:00.105Z,9.30
2022-10-13T17:09:03.944Z,10.30
2022-10-13T17:11:07.816Z,9.87
2022-10-13T17:13:10.995Z,10.03
2022-10-13T17:15:14.103Z,11.33
2022-10-13T17:17:17.169Z,10.17
2022-10-13T17:19:20.342Z,10.13
2022-10-13T17:21:24.953Z,9.40
2022-10-13T17:23:29.164Z,8.87
2022-10-13T17:25:35.164Z,8.40
2022-10-13T17:27:40.465Z,8.90
2022-10-13T17:29:43.587Z,8.37
2022-10-13T17:31:46.713Z,8.50
2022-10-13T17:33:50.974Z,9.07
2022-10-13T17:35:54.381Z,8.73
2022-10-13T17:37:59.156Z,10.10
2022-10-13T17:40:02.270Z,9.00
2022-10-13T17:42:05.895Z,11.73
2022-10-13T17:44:09.008Z,11.63
2022-10-13T17:46:35.014Z,11.63
2022-10-13T17:48:37.216Z,10.90
2022-10-13T17:50:40.270Z,9.80
2022-10-13T17:52:43.403Z,10.37
2022-10-13T17:54:49.768Z,10.57
2022-10-13T17:56:52.879Z,9.93
2022-10-13T17:58:56.664Z,11.37
2022-10-13T18:01:12.977Z,12.33
2022-10-13T18:03:16.767Z,11.90
2022-10-13T18:05:19.852Z,11.43
2022-10-13T18:07:23.311Z,12.43
2022-10-13T18:09:28.926Z,11.73
2022-10-13T18:11:33.853Z,14.37
2022-10-13T18:13:37.437Z,16.00
2022-10-13T18:15:40.892Z,15.90
2022-10-13T18:17:44.421Z,15.93
2022-10-13T18:19:49.152Z,16.63
2022-10-13T18:21:53.030Z,15.93
2022-10-13T18:23:57.013Z,12.17
2022-10-13T18:26:03.678Z,12.10
2022-10-13T18:28:08.177Z,11.70
2022-10-13T18:30:12.469Z,12.57
2022-10-13T18:32:16.028Z,11.67
2022-10-13T18:34:19.131Z,11.27
2022-10-13T18:36:24.247Z,11.97
2022-10-13T18:38:27.866Z,11.30
2022-10-13T18:40:31.564Z,11.50
2022-10-13T18:42:34.686Z,12.60
2022-10-13T18:44:39.160Z,11.77
2022-10-13T18:46:42.680Z,11.77
2022-10-13T18:48:45.733Z,13.60
2022-10-13T18:50:49.049Z,14.20
2022-10-13T18:52:52.220Z,13.00
2022-10-13T18:54:55.423Z,13.30
2022-10-13T18:56:58.831Z,15.70
2022-10-13T18:59:03.803Z,12.53
2022-10-13T19:01:10.031Z,11.43
2022-10-13T19:03:13.926Z,12.70
2022-10-13T19:05:21.294Z,13.53
2022-10-13T19:07:25.621Z,13.43
2022-10-13T19:09:30.237Z,13.87
2022-10-13T19:11:33.804Z,11.70
2022-10-13T19:13:36.827Z,12.03
2022-10-13T19:15:40.944Z,11.70
2022-10-13T19:17:45.444Z,11.90
2022-10-13T19:19:48.550Z,12.60
2022-10-13T19:21:51.626Z,12.80
2022-10-13T19:23:55.168Z,11.60
2022-10-13T19:26:00.794Z,11.53
2022-10-13T19:28:03.949Z,12.27
2022-10-13T19:30:07.806Z,12.03
2022-10-13T19:32:10.981Z,13.17
2022-10-13T19:34:15.520Z,13.30
2022-10-13T19:36:22.926Z,13.60
2022-10-13T19:38:28.516Z,13.90
2022-10-13T19:40:31.676Z,14.93
2022-10-13T19:42:34.914Z,14.20
2022-10-13T19:44:38.412Z,14.90
2022-10-13T19:46:42.390Z,14.80
2022-10-13T19:48:45.848Z,14.40
2022-10-13T19:50:50.821Z,14.40
2022-10-13T19:52:53.983Z,14.87
2022-10-13T19:54:57.409Z,16.20
2022-10-13T19:57:00.557Z,15.50
2022-10-13T19:59:05.301Z,15.40
2022-10-13T20:01:10.962Z,21.67
2022-10-13T20:03:15.227Z,21.63
2022-10-13T20:05:25.469Z,23.17
2022-10-13T20:07:32.090Z,20.70
2022-10-13T20:09:41.620Z,15.20
2022-10-13T20:11:45.521Z,16.10
2022-10-13T20:13:48.884Z,15.40
2022-10-13T20:15:52.008Z,14.90
2022-10-13T20:17:55.118Z,17.03
2022-10-13T20:19:58.198Z,15.97
2022-10-13T20:22:01.873Z,16.40
2022-10-13T20:24:07.096Z,16.80
2022-10-13T20:26:12.607Z,16.47
2022-10-13T20:28:15.873Z,16.90
2022-10-13T20:30:21.688Z,16.23
2022-10-13T20:32:28.574Z,15.70
2022-10-13T20:34:31.728Z,14.93
2022-10-13T20:36:39.053Z,14.03
2022-10-13T20:38:42.769Z,12.93
2022-10-13T20:40:49.658Z,12.97
2022-10-13T20:42:53.431Z,13.70
2022-10-13T20:44:58.665Z,13.27
2022-10-13T20:47:01.903Z,12.70
2022-10-13T20:49:11.014Z,11.87
2022-10-13T20:51:19.261Z,12.77
2022-10-13T20:53:25.167Z,12.83
2022-10-13T20:55:28.618Z,12.23
2022-10-13T20:57:36.443Z,12.50
2022-10-13T20:59:46.239Z,11.50
2022-10-13T21:01:50.500Z,12.37
2022-10-13T21:03:54.103Z,12.10
2022-10-13T21:05:57.702Z,13.07
2022-10-13T21:08:00.719Z,13.30
2022-10-13T21:10:09.441Z,13.50
2022-10-13T21:12:12.508Z,14.97
2022-10-13T21:14:16.947Z,15.30
2022-10-13T21:16:22.984Z,15.53
2022-10-13T21:18:26.088Z,14.90
2022-10-13T21:20:29.175Z,13.93
2022-10-13T21:22:32.274Z,15.47
2022-10-13T21:24:35.844Z,14.90
2022-10-13T21:26:39.028Z,15.50
2022-10-13T21:28:42.250Z,15.43
2022-10-13T21:30:46.999Z,14.20
2022-10-13T21:32:50.216Z,15.33
2022-10-13T21:34:53.930Z,15.50
2022-10-13T21:36:57.874Z,16.23
2022-10-13T21:39:02.979Z,16.20
2022-10-13T21:41:06.905Z,16.10
2022-10-13T21:43:09.999Z,15.73
2022-10-13T21:45:13.112Z,17.03
2022-10-13T21:47:17.636Z,17.07
2022-10-13T21:49:20.737Z,16.17
2022-10-13T21:51:25.637Z,17.20
2022-10-13T21:53:28.793Z,16.03
2022-10-13T21:55:32.959Z,17.37
2022-10-13T21:57:35.956Z,16.70
2022-10-13T21:59:39.118Z,15.70
2022-10-13T22:01:42.530Z,17.33
2022-10-13T22:03:50.252Z,17.83
2022-10-13T22:05:56.099Z,17.10
2022-10-13T22:07:59.185Z,17.67
2022-10-13T22:10:02.295Z,16.70
2022-10-13T22:12:05.618Z,17.57
2022-10-13T22:14:09.095Z,16.67
2022-10-13T22:16:14.236Z,15.10
2022-10-13T22:18:17.390Z,15.40
2022-10-13T22:20:21.812Z,14.40
2022-10-13T22:22:28.718Z,15.83
2022-10-13T22:24:33.958Z,15.70
2022-10-13T22:26:38.414Z,15.80
2022-10-13T22:28:41.533Z,15.80
2022-10-13T22:30:44.702Z,15.83
2022-10-13T22:32:49.486Z,16.00
2022-10-13T22:34:52.525Z,16.50
2022-10-13T22:36:56.963Z,15.83
2022-10-13T22:39:02.684Z,16.17
2022-10-13T22:41:06.848Z,15.13
2022-10-13T22:43:10.002Z,15.67
2022-10-13T22:45:13.011Z,16.30
2022-10-13T22:47:16.125Z,15.90
2022-10-13T22:49:19.283Z,15.07
2022-10-13T22:51:23.865Z,15.27
2022-10-13T22:53:28.308Z,15.07
2022-10-13T22:55:31.350Z,14.87
2022-10-13T22:57:34.435Z,14.23
2022-10-13T22:59:37.471Z,14.80
2022-10-13T23:01:40.577Z,14.37
2022-10-13T23:03:43.842Z,15.00
2022-10-13T23:05:48.536Z,15.10
2022-10-13T23:07:53.043Z,17.70
2022-10-13T23:09:59.509Z,15.03
2022-10-13T23:12:02.676Z,19.30
2022-10-13T23:14:05.727Z,16.67
2022-10-13T23:16:10.730Z,18.00
2022-10-13T23:18:14.092Z,19.50
2022-10-13T23:20:17.295Z,19.30
2022-10-13T23:22:20.382Z,18.20
2022-10-13T23:24:23.431Z,15.57
2022-10-13T23:26:28.612Z,14.87
2022-10-13T23:28:31.938Z,13.20
2022-10-13T23:30:35.041Z,12.53
2022-10-13T23:32:38.047Z,13.23
2022-10-13T23:34:41.112Z,12.43
2022-10-13T23:36:44.342Z,13.33
2022-10-13T23:38:47.438Z,12.87
2022-10-13T23:40:51.234Z,13.37
2022-10-13T23:42:55.684Z,13.33
2022-10-13T23:44:58.925Z,13.13
2022-10-13T23:47:01.992Z,13.60
2022-10-13T23:49:05.175Z,13.40
2022-10-13T23:51:11.385Z,13.73
2022-10-13T23:53:14.476Z,14.63
2022-10-13T23:55:18.142Z,13.97
2022-10-13T23:57:21.272Z,14.00
2022-10-13T23:59:26.092Z,12.90
